createdAt,value
2022-08-14T07:25:02.354Z,5.72
2022-08-14T10:01:14.795Z,5.80
2022-08-14T10:05:26.918Z,5.07
2022-08-14T10:09:33.436Z,5.50
2022-08-14T10:13:52.858Z,5.50
2022-08-14T10:18:08.098Z,5.03
2022-08-14T10:23:15.491Z,5.23
2022-08-14T10:26:32.190Z,5.60
2022-08-14T10:30:37.085Z,5.25
2022-08-14T10:34:40.971Z,5.32
2022-08-14T10:38:42.875Z,4.80
2022-08-14T10:42:52.331Z,5.03
2022-08-14T10:47:39.769Z,5.00
2022-08-14T10:51:26.379Z,5.15
2022-08-14T10:55:39.497Z,5.07
2022-08-14T10:59:56.679Z,5.15
2022-08-14T11:03:59.059Z,5.22
2022-08-14T11:08:01.035Z,5.10
2022-08-14T11:12:34.189Z,4.35
2022-08-14T11:16:26.900Z,4.30
2022-08-14T11:20:31.744Z,4.07
2022-08-14T11:24:54.907Z,4.00
2022-08-14T11:29:02.695Z,4.45
2022-08-14T11:33:06.190Z,4.00
2022-08-14T11:37:21.536Z,3.30
2022-08-14T11:41:34.773Z,3.22
2022-08-14T11:45:41.025Z,3.55
2022-08-14T11:49:43.027Z,3.08
2022-08-14T11:53:51.389Z,3.70
2022-08-14T11:58:03.284Z,3.33
2022-08-14T12:03:01.689Z,3.25
2022-08-14T12:06:49.151Z,3.15
2022-08-14T12:10:57.551Z,3.75
2022-08-14T12:19:06.032Z,3.75
2022-08-14T12:23:23.179Z,3.55
2022-08-14T12:27:41.540Z,3.58
2022-08-14T12:31:47.199Z,3.25
2022-08-14T12:35:56.290Z,3.63
2022-08-14T12:40:13.356Z,3.65
2022-08-14T12:44:20.491Z,3.38
2022-08-14T12:48:31.523Z,3.72
2022-08-14T12:52:53.940Z,3.60
2022-08-14T12:57:04.607Z,3.58
2022-08-14T13:01:16.969Z,4.07
2022-08-14T13:05:24.749Z,3.80
2022-08-14T13:09:36.321Z,3.70
2022-08-14T13:13:44.844Z,3.60
2022-08-14T13:17:52.807Z,3.90
2022-08-14T13:21:58.848Z,3.50
2022-08-14T13:26:08.664Z,3.85
2022-08-14T13:30:21.322Z,3.45
2022-08-14T13:34:28.575Z,3.45
2022-08-14T13:38:31.043Z,3.67
2022-08-14T13:42:34.003Z,3.63
2022-08-14T13:46:36.060Z,3.70
2022-08-14T13:50:39.832Z,3.72
2022-08-14T13:54:46.011Z,3.70
2022-08-14T13:58:49.165Z,3.20
2022-08-14T14:02:51.381Z,3.60
2022-08-14T14:06:54.020Z,3.55
2022-08-14T14:10:57.507Z,3.80
2022-08-14T14:15:04.759Z,3.67
2022-08-14T14:19:09.722Z,3.90
2022-08-14T14:23:17.560Z,3.65
2022-08-14T14:31:43.263Z,3.90
2022-08-14T14:35:46.204Z,3.80
2022-08-14T14:40:53.788Z,3.88
2022-08-14T14:44:16.020Z,3.80
2022-08-14T14:48:19.515Z,3.55
2022-08-14T14:52:27.575Z,4.03
2022-08-14T14:56:51.540Z,4.05
2022-08-14T15:00:56.251Z,4.20
2022-08-14T15:04:58.103Z,3.87
2022-08-14T15:09:01.806Z,4.05
2022-08-14T15:13:06.820Z,3.92
2022-08-14T15:17:09.148Z,4.30
2022-08-14T15:21:13.397Z,3.80
2022-08-14T15:25:18.637Z,4.22
2022-08-14T15:29:20.474Z,3.55
2022-08-14T15:34:01.124Z,4.20
2022-08-14T15:38:10.502Z,4.25
2022-08-14T15:42:17.086Z,3.90
2022-08-14T15:46:41.126Z,4.07
2022-08-14T15:50:44.547Z,3.80
2022-08-14T15:54:50.887Z,4.30
2022-08-14T15:58:53.028Z,4.20
2022-08-14T16:02:54.840Z,4.32
2022-08-14T16:06:57.223Z,3.22
2022-08-14T16:11:01.096Z,3.38
2022-08-14T16:15:03.012Z,3.97
2022-08-14T16:59:59.063Z,3.80
2022-08-14T17:04:24.369Z,4.13
2022-08-14T17:08:41.638Z,4.00
2022-08-14T17:12:48.512Z,4.13
2022-08-14T17:16:56.901Z,4.13
2022-08-14T17:21:19.416Z,4.00
2022-08-14T17:25:31.324Z,4.00
2022-08-14T17:29:44.730Z,4.10
2022-08-14T17:33:59.343Z,3.80
2022-08-14T17:38:38.989Z,4.28
2022-08-14T17:42:51.882Z,4.13
2022-08-14T17:47:10.132Z,4.20
2022-08-14T17:51:12.411Z,4.18
2022-08-14T17:56:01.456Z,4.15
2022-08-14T17:59:41.398Z,4.53
2022-08-14T18:03:51.053Z,5.07
2022-08-14T18:08:32.102Z,4.35
2022-08-14T18:12:31.863Z,4.63
2022-08-14T18:16:34.221Z,4.50
2022-08-14T18:21:41.707Z,4.47
2022-08-14T18:25:03.486Z,4.65
2022-08-14T18:29:15.076Z,4.65
2022-08-14T18:33:22.583Z,4.45
2022-08-14T18:37:24.356Z,5.03
2022-08-14T18:41:36.208Z,4.43
2022-08-14T18:45:59.213Z,4.82
2022-08-14T18:50:27.579Z,4.88
2022-08-14T18:54:37.129Z,5.00
2022-08-14T18:58:58.508Z,4.90
2022-08-14T19:03:08.225Z,4.65
2022-08-14T19:07:17.556Z,4.82
2022-08-14T19:11:31.802Z,4.57
2022-08-14T19:15:36.393Z,5.15
2022-08-14T19:19:39.387Z,5.13
2022-08-14T19:23:44.386Z,4.55
2022-08-14T19:28:31.919Z,5.15
2022-08-14T19:32:39.636Z,5.07
2022-08-14T19:37:06.164Z,4.78
